createdAt,value
2022-08-08T00:00:53.361Z,9.45
2022-08-08T00:03:19.811Z,10.10
2022-08-08T00:06:05.656Z,10.30
2022-08-08T00:08:49.730Z,10.98
2022-08-08T00:12:02.976Z,10.55
2022-08-08T00:14:57.221Z,11.50
2022-08-08T00:17:48.261Z,11.82
2022-08-08T00:20:44.331Z,11.05
2022-08-08T00:23:20.393Z,12.35
2022-08-08T00:25:56.156Z,12.05
2022-08-08T00:28:35.916Z,12.27
2022-08-08T00:32:28.550Z,12.10
2022-08-08T00:34:49.726Z,11.95
2022-08-08T00:38:01.350Z,12.00
2022-08-08T00:41:09.292Z,12.23
2022-08-08T00:43:39.947Z,12.52
2022-08-08T00:46:23.222Z,12.55
2022-08-08T00:52:19.925Z,12.52
2022-08-08T00:55:05.647Z,10.88
2022-08-08T00:58:12.727Z,11.82
2022-08-08T01:00:50.565Z,12.30
2022-08-08T01:04:01.156Z,12.50
2022-08-08T01:06:38.661Z,11.93
2022-08-08T01:09:41.359Z,11.45
2022-08-08T01:15:00.477Z,10.93
2022-08-08T01:18:06.525Z,12.65
2022-08-08T01:20:51.683Z,11.88
2022-08-08T01:24:06.264Z,12.68
2022-08-08T01:26:57.764Z,12.38
2022-08-08T01:29:35.446Z,11.75
2022-08-08T01:32:43.081Z,12.10
2022-08-08T01:36:05.181Z,12.63
2022-08-08T01:38:47.706Z,12.57
2022-08-08T01:41:34.491Z,12.35
2022-08-08T01:44:07.833Z,12.82
2022-08-08T01:46:47.299Z,13.10
2022-08-08T01:49:37.754Z,12.00
2022-08-08T01:53:05.094Z,13.00
2022-08-08T01:56:27.524Z,13.50
2022-08-08T01:58:47.021Z,12.43
2022-08-08T02:01:54.697Z,12.75
2022-08-08T02:04:52.193Z,13.10
2022-08-08T02:07:41.796Z,12.10
2022-08-08T02:10:46.553Z,14.23
2022-08-08T02:13:52.534Z,13.77
2022-08-08T02:16:21.537Z,13.27
2022-08-08T02:19:41.608Z,13.25
2022-08-08T02:22:31.422Z,12.88
2022-08-08T02:25:20.085Z,12.85
2022-08-08T02:28:08.770Z,13.13
2022-08-08T02:31:43.625Z,12.20
2022-08-08T02:34:09.172Z,13.45
2022-08-08T02:36:55.492Z,14.32
2022-08-08T02:40:01.563Z,12.48
2022-08-08T02:44:34.603Z,13.55
2022-08-08T02:45:59.028Z,12.80
2022-08-08T02:48:46.127Z,12.68
2022-08-08T02:51:46.789Z,12.65
2022-08-08T02:54:32.059Z,13.88
2022-08-08T02:57:44.674Z,13.18
2022-08-08T03:00:31.291Z,13.70
2022-08-08T03:05:01.115Z,13.65
2022-08-08T03:06:37.074Z,13.52
2022-08-08T03:09:45.127Z,13.40
2022-08-08T03:12:36.241Z,13.45
2022-08-08T03:15:56.234Z,14.60
2022-08-08T03:18:54.365Z,13.57
2022-08-08T03:21:27.026Z,13.95
2022-08-08T03:24:08.234Z,13.73
2022-08-08T03:26:42.696Z,13.52
2022-08-08T03:29:20.575Z,14.48
2022-08-08T03:32:12.313Z,13.95
2022-08-08T03:34:41.221Z,13.98
2022-08-08T03:37:19.947Z,14.27
2022-08-08T03:40:02.353Z,13.20
2022-08-08T03:42:31.595Z,13.77
2022-08-08T03:44:58.840Z,13.93
2022-08-08T03:47:45.322Z,13.15
2022-08-08T03:50:20.226Z,12.85
2022-08-08T03:52:52.628Z,13.40
2022-08-08T03:55:55.712Z,11.52
2022-08-08T03:58:33.654Z,11.88
2022-08-08T04:01:24.541Z,12.52
2022-08-08T04:03:57.024Z,14.77
2022-08-08T04:06:29.597Z,22.33
2022-08-08T04:08:58.346Z,21.83
2022-08-08T04:11:58.061Z,22.33
2022-08-08T04:14:34.410Z,20.80
2022-08-08T04:17:02.634Z,21.33
2022-08-08T04:19:36.779Z,15.90
2022-08-08T04:22:04.449Z,14.23
2022-08-08T04:24:31.790Z,11.38
2022-08-08T04:27:02.656Z,10.70
2022-08-08T04:29:37.366Z,12.00
2022-08-08T04:32:08.283Z,11.68
2022-08-08T04:34:49.503Z,12.15
2022-08-08T04:37:26.261Z,12.45
2022-08-08T04:40:07.087Z,12.07
2022-08-08T04:42:36.954Z,12.00
2022-08-08T04:45:06.398Z,10.88
2022-08-08T04:47:36.559Z,11.60
2022-08-08T04:50:23.588Z,11.18
2022-08-08T04:52:58.711Z,9.55
2022-08-08T04:55:47.857Z,9.07
2022-08-08T04:58:18.111Z,9.95
2022-08-08T05:00:45.189Z,8.82
2022-08-08T05:03:18.521Z,9.13
2022-08-08T05:06:12.764Z,8.98
2022-08-08T05:08:42.295Z,8.73
2022-08-08T05:11:23.826Z,8.77
2022-08-08T05:13:58.024Z,9.13
2022-08-08T05:16:52.754Z,7.72
2022-08-08T05:20:10.852Z,8.43
2022-08-08T05:22:08.584Z,8.70
2022-08-08T05:24:37.647Z,8.93
2022-08-08T05:27:05.923Z,9.18
2022-08-08T05:29:35.722Z,8.50
2022-08-08T05:32:06.538Z,8.68
2022-08-08T05:34:49.534Z,7.20
2022-08-08T05:37:39.528Z,8.15
2022-08-08T05:40:14.831Z,9.07
2022-08-08T05:42:45.388Z,8.43
2022-08-08T05:45:25.428Z,8.23
2022-08-08T05:48:01.527Z,7.90
2022-08-08T05:50:36.371Z,7.82
2022-08-08T05:53:53.963Z,8.40
2022-08-08T05:56:07.724Z,7.60
2022-08-08T05:58:56.852Z,7.45
2022-08-08T06:01:52.450Z,8.38
2022-08-08T06:04:22.509Z,7.25
2022-08-08T06:06:52.866Z,7.25
2022-08-08T06:09:58.857Z,7.00
2022-08-08T06:12:14.272Z,7.40
2022-08-08T06:14:47.658Z,7.72
2022-08-08T06:17:20.940Z,7.15
2022-08-08T06:20:11.637Z,6.75
2022-08-08T06:22:42.095Z,7.90
2022-08-08T06:25:10.380Z,7.00
2022-08-08T06:27:52.652Z,7.10
2022-08-08T06:30:26.279Z,7.30
2022-08-08T06:32:58.434Z,7.00
2022-08-08T06:36:06.514Z,7.05
2022-08-08T06:38:28.740Z,6.68
2022-08-08T06:41:05.569Z,7.13
2022-08-08T06:43:36.506Z,6.95
2022-08-08T06:46:08.899Z,6.20
2022-08-08T06:48:40.019Z,6.80
2022-08-08T06:51:11.181Z,6.63
2022-08-08T06:53:39.461Z,6.03
2022-08-08T06:56:11.537Z,7.10
2022-08-08T06:58:43.428Z,6.50
2022-08-08T07:02:16.849Z,7.28
2022-08-08T07:04:39.932Z,7.30
2022-08-08T07:07:10.435Z,6.55
2022-08-08T07:09:45.706Z,7.45
2022-08-08T07:12:47.785Z,6.78
2022-08-08T07:15:32.668Z,6.15
2022-08-08T07:18:35.900Z,6.18
2022-08-08T07:21:02.031Z,6.07
2022-08-08T07:24:02.803Z,6.22
2022-08-08T07:26:35.454Z,6.30
2022-08-08T07:29:05.825Z,7.57
2022-08-08T07:31:36.715Z,7.30
2022-08-08T07:34:09.053Z,7.00
2022-08-08T07:36:48.343Z,6.35
2022-08-08T07:39:29.325Z,5.10
2022-08-08T07:42:04.411Z,6.13
2022-08-08T07:44:38.439Z,6.45
2022-08-08T07:47:08.782Z,6.35
2022-08-08T07:49:40.119Z,5.32
2022-08-08T07:52:13.140Z,5.30
2022-08-08T07:55:06.435Z,5.20
2022-08-08T07:57:48.710Z,5.68
2022-08-08T08:00:17.255Z,5.78
2022-08-08T08:03:04.156Z,5.30
2022-08-08T08:05:37.960Z,5.38
2022-08-08T08:08:15.651Z,5.97
2022-08-08T08:10:48.234Z,5.35
2022-08-08T08:14:08.230Z,5.93
2022-08-08T08:16:39.764Z,5.68
2022-08-08T08:19:12.849Z,5.50
2022-08-08T08:21:57.369Z,7.22
2022-08-08T08:24:30.307Z,5.53
2022-08-08T08:26:58.760Z,5.15
2022-08-08T08:29:27.732Z,5.20
2022-08-08T08:31:57.627Z,5.60
2022-08-08T08:34:31.730Z,4.95
2022-08-08T08:36:58.925Z,5.03
2022-08-08T08:39:59.704Z,5.63
2022-08-08T08:42:14.053Z,4.43
2022-08-08T08:44:47.407Z,4.75
2022-08-08T08:47:18.842Z,4.80
2022-08-08T08:49:48.783Z,4.47
2022-08-08T08:52:20.658Z,4.43
2022-08-08T08:54:49.496Z,4.10
2022-08-08T08:57:23.679Z,4.50
2022-08-08T09:00:00.033Z,4.25
2022-08-08T09:02:35.755Z,4.45
2022-08-08T09:05:09.196Z,4.15
2022-08-08T09:08:12.461Z,3.95
2022-08-08T09:10:48.122Z,4.00
2022-08-08T09:13:18.706Z,2.70
2022-08-08T09:16:02.818Z,3.28
2022-08-08T09:18:31.196Z,3.05
2022-08-08T09:21:56.280Z,3.60
2022-08-08T09:23:47.748Z,3.38
2022-08-08T09:26:49.721Z,3.50
2022-08-08T09:29:24.671Z,3.05
2022-08-08T09:32:03.779Z,3.03
2022-08-08T09:34:38.996Z,2.55
2022-08-08T09:40:10.831Z,2.63
2022-08-08T09:42:51.574Z,2.85
2022-08-08T09:46:02.069Z,3.00
2022-08-08T09:48:36.471Z,2.97
2022-08-08T09:51:09.789Z,2.92
2022-08-08T09:54:01.270Z,3.35
2022-08-08T09:56:41.371Z,3.28
2022-08-08T09:59:53.298Z,2.38
2022-08-08T10:02:12.959Z,2.08
2022-08-08T10:04:47.274Z,1.85
2022-08-08T10:07:16.996Z,1.95
2022-08-08T10:09:59.444Z,1.98
2022-08-08T10:12:54.161Z,2.05
2022-08-08T10:15:26.783Z,1.95
2022-08-08T10:18:06.025Z,2.05
2022-08-08T10:21:08.318Z,1.75
2022-08-08T10:23:58.643Z,2.10
2022-08-08T10:26:58.643Z,1.90
2022-08-08T10:29:38.378Z,1.90
2022-08-08T10:32:38.121Z,1.80
2022-08-08T10:36:06.659Z,1.70
2022-08-08T10:38:08.057Z,1.80
2022-08-08T10:40:38.500Z,2.00
2022-08-08T10:43:07.148Z,1.88
2022-08-08T10:45:55.819Z,2.00
2022-08-08T10:48:57.513Z,2.33
2022-08-08T10:51:31.686Z,1.88
2022-08-08T10:54:08.121Z,2.83
2022-08-08T10:56:43.067Z,2.20
2022-08-08T10:59:14.629Z,2.35
2022-08-08T11:01:54.425Z,1.83
2022-08-08T11:04:38.658Z,2.25
2022-08-08T11:07:07.225Z,2.00
2022-08-08T11:09:35.246Z,2.20
2022-08-08T11:12:13.140Z,2.05
2022-08-08T11:14:58.438Z,2.97
2022-08-08T11:18:00.688Z,2.40
2022-08-08T11:20:29.068Z,2.40
2022-08-08T11:22:58.987Z,2.08
2022-08-08T11:25:52.962Z,2.13
2022-08-08T11:28:18.908Z,2.30
2022-08-08T11:30:50.614Z,2.30
2022-08-08T11:33:23.419Z,2.65
2022-08-08T11:36:10.503Z,2.95
2022-08-08T11:38:54.297Z,2.38
2022-08-08T11:41:27.884Z,2.38
2022-08-08T11:43:58.685Z,2.47
2022-08-08T11:46:30.620Z,2.85
2022-08-08T11:49:00.370Z,2.53
2022-08-08T11:51:29.947Z,2.05
2022-08-08T11:54:27.065Z,2.25
2022-08-08T11:56:57.779Z,2.38
2022-08-08T11:59:58.265Z,2.42
2022-08-08T12:02:32.603Z,2.20
2022-08-08T12:05:03.630Z,2.13
2022-08-08T12:07:31.917Z,2.72
2022-08-08T12:10:11.151Z,2.78
2022-08-08T12:12:45.803Z,2.33
2022-08-08T12:15:27.131Z,2.30
2022-08-08T12:17:55.318Z,2.33
2022-08-08T12:20:23.169Z,2.35
2022-08-08T12:22:54.000Z,1.98
2022-08-08T12:25:31.036Z,2.78
2022-08-08T12:28:15.574Z,2.08
2022-08-08T12:30:48.001Z,2.65
2022-08-08T12:33:24.606Z,2.45
2022-08-08T12:36:16.284Z,2.22
2022-08-08T12:38:55.283Z,2.88
2022-08-08T12:41:35.438Z,2.50
2022-08-08T12:44:13.514Z,2.70
2022-08-08T12:47:01.175Z,2.10
2022-08-08T12:49:42.995Z,2.67
2022-08-08T12:52:28.332Z,2.70
2022-08-08T12:55:14.456Z,2.30
2022-08-08T12:58:09.588Z,2.38
2022-08-08T13:00:42.954Z,2.40
2022-08-08T13:03:10.749Z,2.72
2022-08-08T13:06:03.613Z,2.72
2022-08-08T13:08:41.459Z,2.00
2022-08-08T13:11:23.472Z,2.08
2022-08-08T13:13:52.498Z,2.38
2022-08-08T13:16:26.006Z,2.38
2022-08-08T13:19:00.374Z,2.70
2022-08-08T13:21:36.415Z,2.28
2022-08-08T13:24:18.559Z,2.67
2022-08-08T13:27:11.754Z,2.55
2022-08-08T13:30:00.311Z,1.90
2022-08-08T13:32:30.307Z,2.92
2022-08-08T13:34:59.426Z,2.40
2022-08-08T13:37:27.908Z,2.67
2022-08-08T13:40:17.998Z,2.30
2022-08-08T13:42:54.205Z,2.08
2022-08-08T13:45:22.945Z,2.88
2022-08-08T13:48:01.930Z,2.50
2022-08-08T13:50:48.019Z,2.15
2022-08-08T13:53:34.118Z,2.13
2022-08-08T13:56:11.544Z,2.22
2022-08-08T13:58:56.264Z,2.60
2022-08-08T14:01:32.799Z,2.17
2022-08-08T14:04:23.077Z,2.80
2022-08-08T14:06:58.881Z,2.30
2022-08-08T14:10:05.126Z,2.40
2022-08-08T14:12:26.492Z,2.65
2022-08-08T14:14:55.102Z,2.22
2022-08-08T14:17:58.038Z,2.17
2022-08-08T14:20:14.832Z,2.28
2022-08-08T14:23:10.229Z,2.45
2022-08-08T14:25:56.633Z,2.78
2022-08-08T14:28:29.093Z,2.22
2022-08-08T14:31:07.733Z,1.88
2022-08-08T14:33:40.016Z,2.78
2022-08-08T14:36:11.481Z,2.70
2022-08-08T14:38:52.465Z,2.58
2022-08-08T14:41:54.107Z,2.90
2022-08-08T14:44:21.181Z,2.60
2022-08-08T14:46:58.607Z,2.47
2022-08-08T14:49:51.820Z,2.78
2022-08-08T14:52:21.786Z,2.92
2022-08-08T14:54:50.053Z,2.67
2022-08-08T14:57:17.045Z,2.50
2022-08-08T14:59:51.227Z,2.72
2022-08-08T15:02:25.507Z,2.08
2022-08-08T15:04:57.354Z,2.20
2022-08-08T15:07:40.164Z,2.40
2022-08-08T15:10:09.905Z,2.25
2022-08-08T15:12:37.427Z,2.97
2022-08-08T15:15:09.154Z,2.25
2022-08-08T15:17:37.902Z,2.47
2022-08-08T15:20:12.506Z,2.20
2022-08-08T15:22:44.683Z,2.33
2022-08-08T15:25:17.745Z,1.95
2022-08-08T15:28:03.873Z,3.08
2022-08-08T15:30:45.829Z,2.63
2022-08-08T15:33:35.721Z,2.13
2022-08-08T15:36:02.191Z,2.33
2022-08-08T15:38:29.481Z,2.47
2022-08-08T15:40:57.141Z,2.10
2022-08-08T15:43:34.851Z,2.00
2022-08-08T15:46:02.980Z,2.30
2022-08-08T15:48:30.995Z,2.15
2022-08-08T15:51:06.248Z,2.22
2022-08-08T15:53:49.181Z,2.25
2022-08-08T15:56:19.918Z,2.00
2022-08-08T15:58:48.575Z,2.25
2022-08-08T16:01:16.647Z,2.10
2022-08-08T16:03:46.126Z,1.80
2022-08-08T16:06:28.563Z,1.90
2022-08-08T16:13:01.954Z,2.17
2022-08-08T16:13:03.455Z,2.00
2022-08-08T16:14:35.258Z,2.40
2022-08-08T16:17:02.817Z,2.40
2022-08-08T16:19:57.105Z,2.35
2022-08-08T16:22:29.900Z,2.20
2022-08-08T16:24:58.200Z,2.30
2022-08-08T16:27:25.469Z,2.67
2022-08-08T16:30:13.667Z,2.42
2022-08-08T16:32:42.309Z,2.72
2022-08-08T16:35:09.683Z,2.20
2022-08-08T16:37:40.384Z,1.92
2022-08-08T16:40:12.224Z,2.20
2022-08-08T16:42:40.470Z,2.45
2022-08-08T16:45:11.489Z,3.25
2022-08-08T16:47:54.966Z,2.58
2022-08-08T16:50:21.965Z,2.38
2022-08-08T16:55:00.056Z,2.35
2022-08-08T16:55:56.019Z,1.95
2022-08-08T16:58:26.445Z,2.75
2022-08-08T17:00:55.360Z,2.90
2022-08-08T17:03:47.501Z,2.20
2022-08-08T17:06:37.666Z,2.45
2022-08-08T17:08:59.159Z,2.63
2022-08-08T17:11:27.926Z,2.88
2022-08-08T17:14:01.706Z,3.22
2022-08-08T17:16:29.472Z,2.60
2022-08-08T17:18:58.472Z,3.00
2022-08-08T17:21:36.689Z,3.17
2022-08-08T17:24:21.975Z,4.20
2022-08-08T17:26:58.062Z,5.18
2022-08-08T17:29:26.404Z,5.55
2022-08-08T17:31:53.433Z,3.80
2022-08-08T17:34:48.295Z,5.50
2022-08-08T17:37:09.225Z,3.20
2022-08-08T17:40:04.826Z,3.20
2022-08-08T17:42:26.447Z,3.80
2022-08-08T17:44:53.991Z,3.10
2022-08-08T17:47:23.797Z,2.33
2022-08-08T17:49:53.010Z,2.60
2022-08-08T17:52:28.177Z,2.40
2022-08-08T17:54:56.023Z,2.75
2022-08-08T17:57:24.181Z,3.33
2022-08-08T17:59:58.534Z,2.90
2022-08-08T18:02:29.992Z,4.43
2022-08-08T18:04:58.774Z,2.65
2022-08-08T18:08:04.011Z,3.85
2022-08-08T18:10:15.489Z,3.20
2022-08-08T18:12:44.444Z,3.10
2022-08-08T18:15:13.305Z,3.10
2022-08-08T18:18:09.599Z,2.55
2022-08-08T18:20:36.884Z,3.17
2022-08-08T18:23:17.255Z,3.13
2022-08-08T18:25:46.535Z,3.95
2022-08-08T18:28:14.382Z,2.53
2022-08-08T18:30:42.972Z,3.00
2022-08-08T18:33:36.575Z,2.25
2022-08-08T18:36:03.202Z,3.40
2022-08-08T18:38:32.348Z,2.80
2022-08-08T18:41:03.083Z,3.37
2022-08-08T18:43:38.077Z,3.15
2022-08-08T18:46:56.497Z,4.25
2022-08-08T18:49:00.894Z,4.05
2022-08-08T18:51:52.511Z,4.25
2022-08-08T18:54:22.460Z,5.47
2022-08-08T18:56:55.331Z,3.90
2022-08-08T18:59:23.232Z,4.28
2022-08-08T19:02:26.692Z,3.70
2022-08-08T19:04:37.341Z,3.25
2022-08-08T19:07:04.587Z,3.78
2022-08-08T19:09:48.477Z,3.40
2022-08-08T19:12:26.535Z,3.65
2022-08-08T19:14:53.534Z,3.80
2022-08-08T19:17:29.457Z,3.20
2022-08-08T19:20:11.143Z,3.15
2022-08-08T21:05:49.142Z,5.57
2022-08-08T21:08:36.262Z,5.60
2022-08-08T21:11:11.680Z,4.90
2022-08-08T21:13:45.556Z,4.38
2022-08-08T21:16:20.692Z,5.82
2022-08-08T21:18:57.487Z,4.97
2022-08-08T21:21:40.213Z,6.45
2022-08-08T21:24:23.973Z,4.07
2022-08-08T21:26:54.025Z,6.55
2022-08-08T21:29:21.668Z,5.30
2022-08-08T21:32:14.181Z,5.00
2022-08-08T21:34:51.767Z,5.70
2022-08-08T21:37:23.568Z,4.00
2022-08-08T21:40:11.427Z,4.03
2022-08-08T21:42:39.414Z,9.30
2022-08-08T21:45:44.145Z,7.05
2022-08-08T21:48:00.888Z,6.78
2022-08-08T21:50:35.642Z,4.78
2022-08-08T21:54:34.544Z,4.35
2022-08-08T21:56:26.538Z,5.38
2022-08-08T21:58:37.406Z,6.38
2022-08-08T22:01:05.191Z,4.75
2022-08-08T22:03:50.394Z,4.57
2022-08-08T22:06:28.766Z,3.70
2022-08-08T22:08:59.399Z,3.97
2022-08-08T22:11:59.409Z,4.03
2022-08-08T22:14:16.719Z,3.33
2022-08-08T22:16:44.348Z,3.20
2022-08-08T22:19:16.432Z,2.72
2022-08-08T22:21:43.172Z,2.85
2022-08-08T22:24:12.121Z,7.80
2022-08-08T22:27:01.155Z,3.55
2022-08-08T22:30:01.425Z,4.05
2022-08-08T22:32:12.171Z,3.60
2022-08-08T22:34:39.318Z,4.05
2022-08-08T22:37:07.124Z,5.32
2022-08-08T22:40:00.947Z,4.68
2022-08-08T22:42:31.893Z,4.95
2022-08-08T22:45:05.423Z,4.13
2022-08-08T22:47:41.207Z,5.82
2022-08-08T22:50:27.009Z,4.15
2022-08-08T22:54:32.564Z,4.22
2022-08-08T22:55:58.065Z,6.25
2022-08-08T22:58:33.989Z,4.97
2022-08-08T23:02:02.130Z,4.97
2022-08-08T23:03:53.749Z,5.80
2022-08-08T23:08:55.463Z,4.32
2022-08-08T23:11:30.808Z,3.45
2022-08-08T23:14:11.603Z,4.57
2022-08-08T23:16:43.958Z,4.25
2022-08-08T23:19:15.365Z,4.80
2022-08-08T23:21:42.390Z,4.75
2022-08-08T23:24:09.334Z,6.18
2022-08-08T23:26:36.122Z,5.25
2022-08-08T23:29:04.508Z,4.07
2022-08-08T23:31:38.787Z,4.05
2022-08-08T23:34:16.585Z,4.50
2022-08-08T23:36:45.639Z,4.45
2022-08-08T23:39:12.766Z,4.10
2022-08-08T23:41:41.605Z,5.00
2022-08-08T23:44:14.653Z,4.90
2022-08-08T23:49:06.332Z,5.15
2022-08-08T23:49:28.544Z,6.18
2022-08-08T23:52:04.486Z,6.03
2022-08-08T23:54:41.471Z,5.10
2022-08-08T23:57:25.594Z,4.05
